LPA3412 VIDP-UGTB
Flight info
| Callsign | LPA3412 |
|---|---|
| Flight time | N/A |
| Altitude | 36000 |
| Route | OROTI7C OROTI DCT BUTOP DCT DI DCT LEMOD DCT RODAR DCT ADEKI DCT LAMUS |
| Aircraft | A320/M-SDE3FGHIRWY/LB1 |
Departure
| Time | N/A |
|---|---|
| Airport | Indira Gandhi International Airport (VIDP) |
Arrival
| Time | 2026-04-27 15:38 |
|---|---|
| Airport | Tbilisi International Airport (UGTB) |
| Time | Latitude | Longitude | Altitude | Speed | Heading |
|---|---|---|---|---|---|
| 2026-04-27 14:37 | 40.58291 | 50.90256 | 37983 ft | 428 kts | 280° |
| 2026-04-27 14:38 | 40.59019 | 50.86458 | 37981 ft | 428 kts | 280° |
| 2026-04-27 14:38 | 40.59500 | 50.83954 | 37981 ft | 428 kts | 280° |
| 2026-04-27 14:39 | 40.61743 | 50.72238 | 37981 ft | 428 kts | 280° |
| 2026-04-27 14:39 | 40.63184 | 50.64632 | 37983 ft | 428 kts | 280° |
| 2026-04-27 14:40 | 40.64619 | 50.57015 | 37981 ft | 429 kts | 280° |
| 2026-04-27 14:40 | 40.66053 | 50.49396 | 37981 ft | 429 kts | 280° |
| 2026-04-27 14:41 | 40.67480 | 50.41764 | 37981 ft | 429 kts | 280° |
| 2026-04-27 14:41 | 40.68902 | 50.34124 | 37981 ft | 429 kts | 280° |
| 2026-04-27 14:42 | 40.70314 | 50.26531 | 37983 ft | 430 kts | 279° |
| 2026-04-27 14:42 | 40.71740 | 50.18870 | 37655 ft | 435 kts | 281° |
| 2026-04-27 14:43 | 40.73367 | 50.10340 | 37786 ft | 428 kts | 279° |
| 2026-04-27 14:43 | 40.74055 | 50.06524 | 37935 ft | 428 kts | 279° |
| 2026-04-27 14:43 | 40.74739 | 50.02696 | 37959 ft | 429 kts | 279° |
| 2026-04-27 14:44 | 40.76111 | 49.95038 | 37970 ft | 429 kts | 279° |
| 2026-04-27 14:44 | 40.77503 | 49.87375 | 37972 ft | 430 kts | 279° |
| 2026-04-27 14:45 | 40.78904 | 49.79710 | 37965 ft | 430 kts | 279° |
| 2026-04-27 14:45 | 40.80288 | 49.72086 | 37965 ft | 430 kts | 279° |
| 2026-04-27 14:46 | 40.81669 | 49.64413 | 37965 ft | 430 kts | 279° |
| 2026-04-27 14:46 | 40.83047 | 49.56727 | 37963 ft | 430 kts | 279° |
| 2026-04-27 14:47 | 40.84421 | 49.49044 | 37977 ft | 430 kts | 279° |
| 2026-04-27 14:47 | 40.85788 | 49.41356 | 37980 ft | 430 kts | 279° |
| 2026-04-27 14:48 | 40.87149 | 49.33661 | 37981 ft | 430 kts | 279° |
| 2026-04-27 14:48 | 40.89185 | 49.22104 | 37984 ft | 430 kts | 279° |
| 2026-04-27 14:49 | 40.90541 | 49.14396 | 37983 ft | 430 kts | 279° |
| 2026-04-27 14:49 | 40.91885 | 49.06694 | 37980 ft | 430 kts | 278° |
| 2026-04-27 14:50 | 40.93220 | 48.98981 | 37978 ft | 430 kts | 278° |
| 2026-04-27 14:50 | 40.94552 | 48.91268 | 37978 ft | 430 kts | 278° |
| 2026-04-27 14:51 | 40.95882 | 48.83550 | 37972 ft | 431 kts | 278° |
| 2026-04-27 14:51 | 40.96985 | 48.77129 | 37966 ft | 431 kts | 278° |
| 2026-04-27 14:52 | 40.98524 | 48.68138 | 37956 ft | 431 kts | 278° |
| 2026-04-27 14:52 | 40.99841 | 48.60398 | 37967 ft | 431 kts | 278° |
| 2026-04-27 14:53 | 41.01157 | 48.52605 | 37960 ft | 431 kts | 278° |
| 2026-04-27 14:53 | 41.02453 | 48.44903 | 37955 ft | 431 kts | 278° |
| 2026-04-27 14:54 | 41.03748 | 48.37162 | 37951 ft | 430 kts | 278° |
| 2026-04-27 14:54 | 41.04835 | 48.30678 | 37950 ft | 431 kts | 278° |
| 2026-04-27 14:55 | 41.06129 | 48.22935 | 37945 ft | 430 kts | 278° |
| 2026-04-27 14:55 | 41.07404 | 48.15243 | 37943 ft | 430 kts | 278° |
| 2026-04-27 14:56 | 41.08671 | 48.07501 | 37940 ft | 430 kts | 278° |
| 2026-04-27 14:56 | 41.09925 | 47.99837 | 37921 ft | 415 kts | 277° |
| 2026-04-27 14:57 | 41.11146 | 47.92465 | 37925 ft | 407 kts | 277° |
| 2026-04-27 14:57 | 41.12340 | 47.85139 | 37923 ft | 406 kts | 277° |
| 2026-04-27 14:58 | 41.13519 | 47.77827 | 37928 ft | 406 kts | 277° |
| 2026-04-27 14:58 | 41.14702 | 47.70513 | 37926 ft | 405 kts | 277° |
| 2026-04-27 14:59 | 41.15885 | 47.63199 | 37925 ft | 405 kts | 277° |
| 2026-04-27 14:59 | 41.17065 | 47.55873 | 37926 ft | 406 kts | 277° |
| 2026-04-27 15:00 | 41.18233 | 47.48538 | 37924 ft | 406 kts | 277° |
| 2026-04-27 15:00 | 41.18812 | 47.44863 | 37735 ft | 407 kts | 277° |
| 2026-04-27 15:00 | 41.19392 | 47.41175 | 37144 ft | 408 kts | 277° |
| 2026-04-27 15:01 | 41.19974 | 47.37484 | 36494 ft | 409 kts | 277° |
| 2026-04-27 15:01 | 41.20559 | 47.33794 | 35942 ft | 407 kts | 277° |
| 2026-04-27 15:01 | 41.21843 | 47.25675 | 34878 ft | 400 kts | 278° |
| 2026-04-27 15:02 | 41.22412 | 47.22071 | 34393 ft | 397 kts | 278° |
| 2026-04-27 15:02 | 41.22975 | 47.18488 | 33910 ft | 395 kts | 278° |
| 2026-04-27 15:02 | 41.23532 | 47.14924 | 33437 ft | 392 kts | 278° |
| 2026-04-27 15:02 | 41.24082 | 47.11398 | 32965 ft | 389 kts | 278° |
| 2026-04-27 15:03 | 41.24627 | 47.07890 | 32502 ft | 386 kts | 278° |
| 2026-04-27 15:03 | 41.25168 | 47.04402 | 32028 ft | 383 kts | 278° |
| 2026-04-27 15:03 | 41.25704 | 47.00947 | 31579 ft | 380 kts | 277° |
| 2026-04-27 15:03 | 41.26236 | 46.97519 | 31124 ft | 377 kts | 278° |
| 2026-04-27 15:04 | 41.26761 | 46.94128 | 30701 ft | 373 kts | 278° |
| 2026-04-27 15:04 | 41.27277 | 46.90757 | 30269 ft | 370 kts | 277° |
| 2026-04-27 15:04 | 41.27786 | 46.87416 | 29853 ft | 367 kts | 277° |
| 2026-04-27 15:04 | 41.28290 | 46.84104 | 29434 ft | 364 kts | 277° |
| 2026-04-27 15:05 | 41.28789 | 46.80825 | 29025 ft | 360 kts | 278° |
| 2026-04-27 15:05 | 41.29284 | 46.77576 | 28627 ft | 356 kts | 278° |
| 2026-04-27 15:05 | 41.29781 | 46.74368 | 28227 ft | 353 kts | 279° |
| 2026-04-27 15:05 | 41.30362 | 46.71199 | 27809 ft | 352 kts | 281° |
| 2026-04-27 15:06 | 41.30787 | 46.69126 | 27540 ft | 350 kts | 282° |
| 2026-04-27 15:06 | 41.31677 | 46.65024 | 26983 ft | 347 kts | 283° |
| 2026-04-27 15:06 | 41.32347 | 46.61955 | 26560 ft | 345 kts | 283° |
| 2026-04-27 15:06 | 41.32571 | 46.60919 | 26406 ft | 344 kts | 283° |
| 2026-04-27 15:07 | 41.34075 | 46.53804 | 25398 ft | 340 kts | 282° |
| 2026-04-27 15:07 | 41.34700 | 46.50773 | 24949 ft | 339 kts | 283° |
| 2026-04-27 15:07 | 41.35320 | 46.47747 | 24494 ft | 338 kts | 283° |
| 2026-04-27 15:08 | 41.35933 | 46.44732 | 24036 ft | 337 kts | 283° |
| 2026-04-27 15:08 | 41.36549 | 46.41719 | 23576 ft | 336 kts | 283° |
| 2026-04-27 15:08 | 41.37303 | 46.38029 | 23016 ft | 335 kts | 283° |
| 2026-04-27 15:09 | 41.38522 | 46.32060 | 22112 ft | 332 kts | 283° |
| 2026-04-27 15:09 | 41.39124 | 46.29096 | 21669 ft | 332 kts | 283° |
| 2026-04-27 15:09 | 41.39727 | 46.26121 | 21235 ft | 332 kts | 283° |
| 2026-04-27 15:09 | 41.40329 | 46.23155 | 20793 ft | 331 kts | 283° |
| 2026-04-27 15:10 | 41.40932 | 46.20203 | 20361 ft | 329 kts | 283° |
| 2026-04-27 15:10 | 41.41526 | 46.17284 | 19926 ft | 321 kts | 283° |
| 2026-04-27 15:10 | 41.42103 | 46.14435 | 19517 ft | 318 kts | 283° |
| 2026-04-27 15:10 | 41.42674 | 46.11590 | 19101 ft | 317 kts | 283° |
| 2026-04-27 15:11 | 41.43242 | 46.08756 | 18693 ft | 316 kts | 283° |
| 2026-04-27 15:11 | 41.43809 | 46.05927 | 18279 ft | 315 kts | 283° |
| 2026-04-27 15:11 | 41.44376 | 46.03105 | 17869 ft | 315 kts | 283° |
| 2026-04-27 15:11 | 41.44942 | 46.00293 | 17462 ft | 314 kts | 283° |
| 2026-04-27 15:12 | 41.45508 | 45.97477 | 17060 ft | 314 kts | 283° |
| 2026-04-27 15:12 | 41.46072 | 45.94666 | 16660 ft | 314 kts | 283° |
| 2026-04-27 15:12 | 41.46636 | 45.91856 | 16259 ft | 314 kts | 283° |
| 2026-04-27 15:12 | 41.47199 | 45.89051 | 15864 ft | 313 kts | 283° |
| 2026-04-27 15:13 | 41.47760 | 45.86248 | 15469 ft | 313 kts | 283° |
| 2026-04-27 15:13 | 41.48318 | 45.83450 | 15090 ft | 312 kts | 283° |
| 2026-04-27 15:13 | 41.48874 | 45.80651 | 14681 ft | 312 kts | 283° |
| 2026-04-27 15:13 | 41.49429 | 45.77856 | 14287 ft | 312 kts | 283° |
| 2026-04-27 15:14 | 41.49981 | 45.75061 | 13891 ft | 311 kts | 283° |
| 2026-04-27 15:14 | 41.50532 | 45.72268 | 13491 ft | 311 kts | 283° |
| 2026-04-27 15:14 | 41.51082 | 45.69484 | 13082 ft | 311 kts | 283° |
| 2026-04-27 15:14 | 41.51633 | 45.66687 | 12670 ft | 311 kts | 283° |
| 2026-04-27 15:15 | 41.52180 | 45.63904 | 12281 ft | 309 kts | 283° |
| 2026-04-27 15:15 | 41.52720 | 45.61156 | 11843 ft | 310 kts | 284° |
| 2026-04-27 15:15 | 41.53165 | 45.58895 | 11493 ft | 310 kts | 283° |
| 2026-04-27 15:15 | 41.53192 | 45.58756 | 11472 ft | 310 kts | 283° |
| 2026-04-27 15:16 | 41.53740 | 45.56134 | 11078 ft | 309 kts | 284° |
| 2026-04-27 15:16 | 41.53815 | 45.55767 | 11022 ft | 309 kts | 284° |
| 2026-04-27 15:16 | 41.54051 | 45.54595 | 10841 ft | 309 kts | 284° |
| 2026-04-27 15:17 | 41.54155 | 45.54040 | 10747 ft | 309 kts | 282° |
| 2026-04-27 15:17 | 41.54349 | 45.51199 | 10297 ft | 305 kts | 266° |
| 2026-04-27 15:17 | 41.54176 | 45.48444 | 9866 ft | 292 kts | 264° |
| 2026-04-27 15:17 | 41.54060 | 45.46674 | 9551 ft | 286 kts | 265° |
| 2026-04-27 15:18 | 41.53836 | 45.43186 | 9038 ft | 281 kts | 265° |
| 2026-04-27 15:18 | 41.53671 | 45.40586 | 8620 ft | 281 kts | 265° |
| 2026-04-27 15:18 | 41.53561 | 45.38864 | 8338 ft | 281 kts | 265° |
| 2026-04-27 15:18 | 41.53393 | 45.36262 | 7908 ft | 282 kts | 265° |
| 2026-04-27 15:19 | 41.53219 | 45.33680 | 7466 ft | 274 kts | 265° |
| 2026-04-27 15:19 | 41.53050 | 45.31206 | 7238 ft | 258 kts | 265° |
| 2026-04-27 15:19 | 41.52841 | 45.28164 | 6801 ft | 243 kts | 265° |
| 2026-04-27 15:19 | 41.52689 | 45.25953 | 6665 ft | 238 kts | 265° |
| 2026-04-27 15:20 | 41.52263 | 45.19631 | 5907 ft | 236 kts | 265° |
| 2026-04-27 15:20 | 41.52118 | 45.17486 | 5599 ft | 227 kts | 265° |
| 2026-04-27 15:21 | 41.52052 | 45.15428 | 5444 ft | 216 kts | 278° |
| 2026-04-27 15:21 | 41.52489 | 45.13602 | 5340 ft | 200 kts | 299° |
| 2026-04-27 15:21 | 41.53339 | 45.12203 | 5036 ft | 191 kts | 316° |
| 2026-04-27 15:21 | 41.54291 | 45.11011 | 4747 ft | 184 kts | 315° |
| 2026-04-27 15:22 | 41.55217 | 45.09843 | 4437 ft | 181 kts | 315° |
| 2026-04-27 15:22 | 41.56109 | 45.08723 | 4156 ft | 171 kts | 315° |
| 2026-04-27 15:22 | 41.56941 | 45.07677 | 3928 ft | 164 kts | 315° |
| 2026-04-27 15:22 | 41.57761 | 45.06646 | 3692 ft | 160 kts | 315° |
| 2026-04-27 15:23 | 41.58557 | 45.05643 | 3501 ft | 153 kts | 315° |
| 2026-04-27 15:23 | 41.59315 | 45.04690 | 3289 ft | 147 kts | 315° |
| 2026-04-27 15:23 | 41.60056 | 45.03755 | 3094 ft | 146 kts | 315° |
| 2026-04-27 15:23 | 41.60792 | 45.02829 | 2897 ft | 144 kts | 315° |
| 2026-04-27 15:24 | 41.61511 | 45.01925 | 2708 ft | 139 kts | 315° |
| 2026-04-27 15:24 | 41.62197 | 45.01064 | 2528 ft | 131 kts | 316° |
| 2026-04-27 15:24 | 41.62843 | 45.00253 | 2344 ft | 126 kts | 315° |
| 2026-04-27 15:24 | 41.63471 | 44.99451 | 2162 ft | 124 kts | 315° |
| 2026-04-27 15:25 | 41.64098 | 44.98652 | 2034 ft | 125 kts | 315° |
| 2026-04-27 15:25 | 41.64734 | 44.97854 | 1845 ft | 126 kts | 315° |
| 2026-04-27 15:25 | 41.65376 | 44.97051 | 1711 ft | 126 kts | 316° |
| 2026-04-27 15:25 | 41.66014 | 44.96244 | 1569 ft | 131 kts | 316° |
| 2026-04-27 15:26 | 41.66665 | 44.95440 | 2326 ft | 131 kts | 315° |
| 2026-04-27 15:26 | 41.67380 | 44.94582 | 3120 ft | 144 kts | 317° |
| 2026-04-27 15:26 | 41.68163 | 44.93696 | 3923 ft | 156 kts | 318° |
| 2026-04-27 15:26 | 41.69064 | 44.92642 | 4087 ft | 188 kts | 316° |
| 2026-04-27 15:27 | 41.69569 | 44.92033 | 4267 ft | 199 kts | 316° |
| 2026-04-27 15:27 | 41.70249 | 44.91209 | 4591 ft | 209 kts | 315° |
| 2026-04-27 15:27 | 41.71323 | 44.89846 | 5352 ft | 216 kts | 314° |
| 2026-04-27 15:27 | 41.72431 | 44.88477 | 6236 ft | 219 kts | 322° |
| 2026-04-27 15:28 | 41.73893 | 44.87886 | 7054 ft | 231 kts | 1° |
| 2026-04-27 15:28 | 41.75392 | 44.88690 | 7744 ft | 248 kts | 37° |
| 2026-04-27 15:28 | 41.76343 | 44.90619 | 7967 ft | 255 kts | 75° |
| 2026-04-27 15:28 | 41.76263 | 44.92956 | 8007 ft | 254 kts | 114° |
| 2026-04-27 15:29 | 41.75174 | 44.94732 | 8009 ft | 247 kts | 154° |
| 2026-04-27 15:29 | 41.73562 | 44.95252 | 8012 ft | 239 kts | 186° |
| 2026-04-27 15:29 | 41.71902 | 44.95141 | 8006 ft | 239 kts | 188° |
| 2026-04-27 15:29 | 41.70240 | 44.94998 | 8007 ft | 240 kts | 188° |
| 2026-04-27 15:30 | 41.68566 | 44.95023 | 8004 ft | 244 kts | 173° |
| 2026-04-27 15:30 | 41.66978 | 44.95856 | 8006 ft | 250 kts | 149° |
| 2026-04-27 15:30 | 41.65730 | 44.97480 | 7998 ft | 253 kts | 125° |
| 2026-04-27 15:30 | 41.64791 | 44.99478 | 8007 ft | 254 kts | 123° |
| 2026-04-27 15:31 | 41.63853 | 45.01475 | 8006 ft | 253 kts | 123° |
| 2026-04-27 15:31 | 41.62914 | 45.03463 | 8006 ft | 252 kts | 123° |
| 2026-04-27 15:31 | 41.61973 | 45.05442 | 8004 ft | 251 kts | 123° |
| 2026-04-27 15:31 | 41.61048 | 45.07384 | 8005 ft | 251 kts | 123° |
| 2026-04-27 15:32 | 41.60109 | 45.09352 | 8010 ft | 251 kts | 123° |
| 2026-04-27 15:32 | 41.59176 | 45.11314 | 8006 ft | 250 kts | 123° |
| 2026-04-27 15:32 | 41.58245 | 45.13273 | 8004 ft | 250 kts | 123° |
| 2026-04-27 15:32 | 41.57315 | 45.15229 | 8004 ft | 249 kts | 124° |
| 2026-04-27 15:33 | 41.56141 | 45.16880 | 7948 ft | 244 kts | 152° |
| 2026-04-27 15:33 | 41.54566 | 45.17509 | 7566 ft | 234 kts | 184° |
| 2026-04-27 15:33 | 41.53051 | 45.16981 | 7247 ft | 220 kts | 213° |
| 2026-04-27 15:33 | 41.51941 | 45.15646 | 6776 ft | 217 kts | 239° |
| 2026-04-27 15:34 | 41.51431 | 45.13752 | 6202 ft | 221 kts | 266° |
| 2026-04-27 15:34 | 41.51654 | 45.11719 | 5617 ft | 227 kts | 293° |
| 2026-04-27 15:34 | 41.52610 | 45.10031 | 4999 ft | 234 kts | 321° |
| 2026-04-27 15:34 | 41.54091 | 45.09113 | 4516 ft | 236 kts | 340° |
| 2026-04-27 15:35 | 41.55624 | 45.08451 | 4199 ft | 226 kts | 340° |
| 2026-04-27 15:35 | 41.56990 | 45.07599 | 4024 ft | 208 kts | 318° |
| 2026-04-27 15:35 | 41.57994 | 45.06360 | 3991 ft | 185 kts | 314° |
| 2026-04-27 15:35 | 41.58917 | 45.05193 | 3575 ft | 185 kts | 314° |
| 2026-04-27 15:36 | 41.59848 | 45.04019 | 3206 ft | 182 kts | 315° |
| 2026-04-27 15:36 | 41.60734 | 45.02903 | 2929 ft | 166 kts | 315° |
| 2026-04-27 15:36 | 41.61530 | 45.01902 | 2714 ft | 149 kts | 314° |
| 2026-04-27 15:36 | 41.62247 | 45.01001 | 2510 ft | 135 kts | 314° |
| 2026-04-27 15:37 | 41.62910 | 45.00164 | 2339 ft | 129 kts | 315° |
| 2026-04-27 15:37 | 41.63549 | 44.99353 | 2141 ft | 126 kts | 315° |
| 2026-04-27 15:37 | 41.64185 | 44.98549 | 1981 ft | 126 kts | 316° |
| 2026-04-27 15:37 | 41.64822 | 44.97745 | 1820 ft | 127 kts | 316° |
| 2026-04-27 15:38 | 41.65461 | 44.96938 | 1679 ft | 126 kts | 315° |
| 2026-04-27 15:38 | 41.66103 | 44.96128 | 1520 ft | 124 kts | 317° |
| 2026-04-27 15:38 | 41.66528 | 44.95592 | 1525 ft | 42 kts | 317° |
| 2026-04-27 15:38 | 41.66606 | 44.95497 | 1522 ft | 11 kts | 317° |
| 2026-04-27 15:39 | 41.66667 | 44.95423 | 1525 ft | 13 kts | 317° |
| 2026-04-27 15:39 | 41.66714 | 44.95367 | 1525 ft | 15 kts | 316° |
| 2026-04-27 15:39 | 41.66807 | 44.95249 | 1525 ft | 21 kts | 317° |
| 2026-04-27 15:39 | 41.66895 | 44.95194 | 1522 ft | 13 kts | 27° |
| 2026-04-27 15:40 | 41.66980 | 44.95300 | 1525 ft | 12 kts | 43° |
| 2026-04-27 15:40 | 41.67036 | 44.95371 | 1526 ft | 10 kts | 44° |
| 2026-04-27 15:40 | 41.67072 | 44.95418 | 1518 ft | 13 kts | 44° |
| 2026-04-27 15:40 | 41.67143 | 44.95508 | 1520 ft | 14 kts | 43° |
| 2026-04-27 15:41 | 41.67214 | 44.95599 | 1520 ft | 15 kts | 44° |
| 2026-04-27 15:41 | 41.67220 | 44.95687 | 1522 ft | 10 kts | 129° |
| 2026-04-27 15:41 | 41.67173 | 44.95752 | 1523 ft | 10 kts | 134° |
| 2026-04-27 15:41 | 41.67121 | 44.95822 | 1526 ft | 15 kts | 133° |
| 2026-04-27 15:42 | 41.67067 | 44.95916 | 1526 ft | 10 kts | 117° |
| 2026-04-27 15:42 | 41.67027 | 44.95988 | 1527 ft | 9 kts | 134° |